sensor_id;sensor_type;location;lat;lon;timestamp;P1;durP1;ratioP1;P2;durP2;ratioP2
65759;SDS011;52496;51.082;5.066;2023-08-21T00:00:33;8.57;;;2.30;;
65759;SDS011;52496;51.082;5.066;2023-08-21T00:03:03;9.13;;;2.50;;
65759;SDS011;52496;51.082;5.066;2023-08-21T00:08:17;6.40;;;2.25;;
65759;SDS011;52496;51.082;5.066;2023-08-21T00:10:48;7.63;;;2.20;;
65759;SDS011;52496;51.082;5.066;2023-08-21T00:18:41;5.45;;;2.58;;
65759;SDS011;52496;51.082;5.066;2023-08-21T00:21:11;6.95;;;2.80;;
65759;SDS011;52496;51.082;5.066;2023-08-21T00:23:45;3.45;;;2.03;;
65759;SDS011;52496;51.082;5.066;2023-08-21T00:26:16;5.82;;;2.38;;
65759;SDS011;52496;51.082;5.066;2023-08-21T00:28:50;10.48;;;2.75;;
65759;SDS011;52496;51.082;5.066;2023-08-21T00:39:12;6.82;;;2.13;;
65759;SDS011;52496;51.082;5.066;2023-08-21T00:41:43;4.28;;;2.20;;
65759;SDS011;52496;51.082;5.066;2023-08-21T00:44:13;5.22;;;2.40;;
65759;SDS011;52496;51.082;5.066;2023-08-21T00:46:44;4.53;;;2.03;;
65759;SDS011;52496;51.082;5.066;2023-08-21T00:49:14;7.38;;;3.00;;
65759;SDS011;52496;51.082;5.066;2023-08-21T00:51:47;5.85;;;3.03;;
65759;SDS011;52496;51.082;5.066;2023-08-21T00:54:20;6.05;;;2.00;;
65759;SDS011;52496;51.082;5.066;2023-08-21T00:56:51;7.10;;;2.30;;
65759;SDS011;52496;51.082;5.066;2023-08-21T00:59:22;6.25;;;2.72;;
65759;SDS011;52496;51.082;5.066;2023-08-21T01:01:53;4.90;;;2.13;;
65759;SDS011;52496;51.082;5.066;2023-08-21T01:04:23;6.45;;;2.50;;
65759;SDS011;52496;51.082;5.066;2023-08-21T01:06:56;5.28;;;2.75;;
65759;SDS011;52496;51.082;5.066;2023-08-21T01:09:35;6.10;;;2.45;;
65759;SDS011;52496;51.082;5.066;2023-08-21T01:15:14;5.78;;;2.35;;
65759;SDS011;52496;51.082;5.066;2023-08-21T01:23:51;4.78;;;2.63;;
65759;SDS011;52496;51.082;5.066;2023-08-21T01:26:22;4.35;;;2.72;;
65759;SDS011;52496;51.082;5.066;2023-08-21T01:28:53;6.10;;;2.42;;
65759;SDS011;52496;51.082;5.066;2023-08-21T01:31:28;6.95;;;2.25;;
65759;SDS011;52496;51.082;5.066;2023-08-21T01:34:06;5.25;;;2.67;;
65759;SDS011;52496;51.082;5.066;2023-08-21T01:36:39;8.18;;;2.58;;
65759;SDS011;52496;51.082;5.066;2023-08-21T01:41:51;5.53;;;2.38;;
65759;SDS011;52496;51.082;5.066;2023-08-21T01:44:21;5.53;;;2.53;;
65759;SDS011;52496;51.082;5.066;2023-08-21T01:46:52;7.07;;;2.72;;
65759;SDS011;52496;51.082;5.066;2023-08-21T01:52:03;10.07;;;2.50;;
65759;SDS011;52496;51.082;5.066;2023-08-21T01:54:37;4.00;;;2.00;;
65759;SDS011;52496;51.082;5.066;2023-08-21T01:57:07;5.70;;;2.42;;
65759;SDS011;52496;51.082;5.066;2023-08-21T01:59:37;5.22;;;2.47;;
65759;SDS011;52496;51.082;5.066;2023-08-21T02:02:08;5.85;;;2.20;;
65759;SDS011;52496;51.082;5.066;2023-08-21T02:04:38;6.75;;;3.00;;
65759;SDS011;52496;51.082;5.066;2023-08-21T02:07:09;5.93;;;3.35;;
65759;SDS011;52496;51.082;5.066;2023-08-21T02:09:39;8.02;;;2.60;;
65759;SDS011;52496;51.082;5.066;2023-08-21T02:12:09;5.03;;;2.63;;
65759;SDS011;52496;51.082;5.066;2023-08-21T02:14:40;14.38;;;2.70;;
65759;SDS011;52496;51.082;5.066;2023-08-21T02:17:10;6.05;;;2.60;;
65759;SDS011;52496;51.082;5.066;2023-08-21T02:27:42;4.15;;;2.15;;
65759;SDS011;52496;51.082;5.066;2023-08-21T02:30:12;7.75;;;2.90;;
65759;SDS011;52496;51.082;5.066;2023-08-21T02:32:43;6.40;;;2.30;;
65759;SDS011;52496;51.082;5.066;2023-08-21T02:35:14;6.28;;;2.25;;
65759;SDS011;52496;51.082;5.066;2023-08-21T02:37:44;6.07;;;2.53;;
65759;SDS011;52496;51.082;5.066;2023-08-21T02:40:15;3.85;;;2.40;;
65759;SDS011;52496;51.082;5.066;2023-08-21T02:45:21;8.05;;;2.75;;
65759;SDS011;52496;51.082;5.066;2023-08-21T02:47:54;4.97;;;2.55;;
65759;SDS011;52496;51.082;5.066;2023-08-21T02:50:25;3.90;;;2.22;;
65759;SDS011;52496;51.082;5.066;2023-08-21T02:53:01;5.25;;;2.30;;
65759;SDS011;52496;51.082;5.066;2023-08-21T02:55:32;6.35;;;2.63;;
65759;SDS011;52496;51.082;5.066;2023-08-21T02:58:03;7.45;;;2.40;;
65759;SDS011;52496;51.082;5.066;2023-08-21T03:00:33;6.93;;;2.50;;
65759;SDS011;52496;51.082;5.066;2023-08-21T03:03:04;7.57;;;2.22;;
65759;SDS011;52496;51.082;5.066;2023-08-21T03:05:37;5.03;;;2.83;;
65759;SDS011;52496;51.082;5.066;2023-08-21T03:08:07;4.40;;;2.40;;
65759;SDS011;52496;51.082;5.066;2023-08-21T03:13:15;9.00;;;2.65;;
65759;SDS011;52496;51.082;5.066;2023-08-21T03:15:46;6.00;;;2.60;;
65759;SDS011;52496;51.082;5.066;2023-08-21T03:20:57;8.13;;;2.53;;
65759;SDS011;52496;51.082;5.066;2023-08-21T03:23:30;4.07;;;2.40;;
65759;SDS011;52496;51.082;5.066;2023-08-21T03:26:00;5.07;;;2.38;;
65759;SDS011;52496;51.082;5.066;2023-08-21T03:28:30;5.07;;;2.40;;
65759;SDS011;52496;51.082;5.066;2023-08-21T03:33:41;6.43;;;3.05;;
65759;SDS011;52496;51.082;5.066;2023-08-21T03:36:15;6.55;;;2.58;;
65759;SDS011;52496;51.082;5.066;2023-08-21T03:38:45;6.90;;;2.67;;
65759;SDS011;52496;51.082;5.066;2023-08-21T03:41:16;6.63;;;3.10;;
65759;SDS011;52496;51.082;5.066;2023-08-21T03:43:46;5.03;;;2.53;;
65759;SDS011;52496;51.082;5.066;2023-08-21T03:46:17;6.53;;;2.45;;
65759;SDS011;52496;51.082;5.066;2023-08-21T03:48:53;7.20;;;3.60;;
65759;SDS011;52496;51.082;5.066;2023-08-21T03:51:24;4.63;;;2.50;;
65759;SDS011;52496;51.082;5.066;2023-08-21T03:53:57;5.07;;;2.33;;
65759;SDS011;52496;51.082;5.066;2023-08-21T03:56:28;7.07;;;2.55;;
65759;SDS011;52496;51.082;5.066;2023-08-21T04:01:33;6.13;;;2.30;;
65759;SDS011;52496;51.082;5.066;2023-08-21T04:04:04;5.45;;;2.65;;
65759;SDS011;52496;51.082;5.066;2023-08-21T04:09:11;6.85;;;2.75;;
65759;SDS011;52496;51.082;5.066;2023-08-21T04:11:41;6.88;;;2.45;;
65759;SDS011;52496;51.082;5.066;2023-08-21T04:14:12;5.03;;;2.83;;
65759;SDS011;52496;51.082;5.066;2023-08-21T04:16:43;7.05;;;3.03;;
65759;SDS011;52496;51.082;5.066;2023-08-21T04:19:13;6.35;;;2.80;;
65759;SDS011;52496;51.082;5.066;2023-08-21T04:21:44;7.45;;;2.85;;
65759;SDS011;52496;51.082;5.066;2023-08-21T04:24:14;7.18;;;2.75;;
65759;SDS011;52496;51.082;5.066;2023-08-21T04:26:44;5.88;;;2.80;;
65759;SDS011;52496;51.082;5.066;2023-08-21T04:29:15;5.30;;;2.78;;
65759;SDS011;52496;51.082;5.066;2023-08-21T04:31:45;5.70;;;2.88;;
65759;SDS011;52496;51.082;5.066;2023-08-21T04:34:16;7.13;;;2.78;;
65759;SDS011;52496;51.082;5.066;2023-08-21T04:36:48;4.80;;;2.22;;
65759;SDS011;52496;51.082;5.066;2023-08-21T04:39:19;5.30;;;2.03;;
65759;SDS011;52496;51.082;5.066;2023-08-21T04:41:49;6.60;;;2.58;;
65759;SDS011;52496;51.082;5.066;2023-08-21T04:44:20;5.35;;;2.60;;
65759;SDS011;52496;51.082;5.066;2023-08-21T04:46:50;6.50;;;2.70;;
65759;SDS011;52496;51.082;5.066;2023-08-21T04:52:01;4.15;;;2.58;;
65759;SDS011;52496;51.082;5.066;2023-08-21T04:54:32;6.22;;;2.40;;
65759;SDS011;52496;51.082;5.066;2023-08-21T04:57:02;5.65;;;2.80;;
65759;SDS011;52496;51.082;5.066;2023-08-21T04:59:34;5.10;;;2.90;;
65759;SDS011;52496;51.082;5.066;2023-08-21T05:02:06;4.60;;;3.03;;
65759;SDS011;52496;51.082;5.066;2023-08-21T05:04:37;5.80;;;3.00;;
65759;SDS011;52496;51.082;5.066;2023-08-21T05:07:07;5.28;;;3.20;;
65759;SDS011;52496;51.082;5.066;2023-08-21T05:09:38;6.57;;;3.53;;
65759;SDS011;52496;51.082;5.066;2023-08-21T05:12:08;6.03;;;2.80;;
65759;SDS011;52496;51.082;5.066;2023-08-21T05:14:39;9.90;;;3.00;;
65759;SDS011;52496;51.082;5.066;2023-08-21T05:19:55;8.43;;;2.58;;
65759;SDS011;52496;51.082;5.066;2023-08-21T05:22:25;7.80;;;2.92;;
65759;SDS011;52496;51.082;5.066;2023-08-21T05:24:56;4.18;;;2.42;;
65759;SDS011;52496;51.082;5.066;2023-08-21T05:27:30;5.10;;;3.13;;
65759;SDS011;52496;51.082;5.066;2023-08-21T05:30:00;6.45;;;3.40;;
65759;SDS011;52496;51.082;5.066;2023-08-21T05:32:31;9.60;;;3.53;;
65759;SDS011;52496;51.082;5.066;2023-08-21T05:35:02;11.23;;;3.55;;
65759;SDS011;52496;51.082;5.066;2023-08-21T05:37:33;7.65;;;3.53;;
65759;SDS011;52496;51.082;5.066;2023-08-21T05:40:04;8.73;;;3.35;;
65759;SDS011;52496;51.082;5.066;2023-08-21T05:42:35;12.88;;;3.63;;
65759;SDS011;52496;51.082;5.066;2023-08-21T05:45:09;7.43;;;3.67;;
65759;SDS011;52496;51.082;5.066;2023-08-21T05:47:39;10.05;;;3.85;;
65759;SDS011;52496;51.082;5.066;2023-08-21T05:50:10;9.25;;;3.90;;
65759;SDS011;52496;51.082;5.066;2023-08-21T05:52:41;9.93;;;4.05;;
65759;SDS011;52496;51.082;5.066;2023-08-21T05:55:11;6.95;;;3.67;;
65759;SDS011;52496;51.082;5.066;2023-08-21T05:57:42;11.20;;;3.70;;
65759;SDS011;52496;51.082;5.066;2023-08-21T06:00:15;6.20;;;3.42;;
65759;SDS011;52496;51.082;5.066;2023-08-21T06:02:46;8.57;;;4.78;;
65759;SDS011;52496;51.082;5.066;2023-08-21T06:05:17;7.65;;;3.88;;
65759;SDS011;52496;51.082;5.066;2023-08-21T06:07:47;12.70;;;4.15;;
65759;SDS011;52496;51.082;5.066;2023-08-21T06:10:18;9.13;;;4.47;;
65759;SDS011;52496;51.082;5.066;2023-08-21T06:12:48;14.68;;;4.20;;
65759;SDS011;52496;51.082;5.066;2023-08-21T06:15:20;9.45;;;4.38;;
65759;SDS011;52496;51.082;5.066;2023-08-21T06:17:51;9.48;;;4.50;;
65759;SDS011;52496;51.082;5.066;2023-08-21T06:20:24;9.68;;;4.40;;
65759;SDS011;52496;51.082;5.066;2023-08-21T06:22:54;9.07;;;4.45;;
65759;SDS011;52496;51.082;5.066;2023-08-21T06:25:25;9.23;;;4.38;;
65759;SDS011;52496;51.082;5.066;2023-08-21T06:27:56;8.60;;;3.78;;
65759;SDS011;52496;51.082;5.066;2023-08-21T06:30:26;7.53;;;4.18;;
65759;SDS011;52496;51.082;5.066;2023-08-21T06:32:57;10.30;;;4.15;;
65759;SDS011;52496;51.082;5.066;2023-08-21T06:35:28;12.85;;;4.38;;
65759;SDS011;52496;51.082;5.066;2023-08-21T06:38:00;14.38;;;4.30;;
65759;SDS011;52496;51.082;5.066;2023-08-21T06:40:31;10.60;;;4.93;;
65759;SDS011;52496;51.082;5.066;2023-08-21T06:43:02;9.60;;;4.22;;
65759;SDS011;52496;51.082;5.066;2023-08-21T06:45:35;9.98;;;4.00;;
65759;SDS011;52496;51.082;5.066;2023-08-21T06:48:06;9.75;;;4.55;;
65759;SDS011;52496;51.082;5.066;2023-08-21T06:50:37;7.68;;;3.45;;
65759;SDS011;52496;51.082;5.066;2023-08-21T06:53:08;10.73;;;3.53;;
65759;SDS011;52496;51.082;5.066;2023-08-21T06:55:38;14.65;;;4.18;;
65759;SDS011;52496;51.082;5.066;2023-08-21T06:58:09;9.43;;;3.75;;
65759;SDS011;52496;51.082;5.066;2023-08-21T07:00:40;9.77;;;3.33;;
65759;SDS011;52496;51.082;5.066;2023-08-21T07:05:57;11.13;;;3.70;;
65759;SDS011;52496;51.082;5.066;2023-08-21T07:08:28;8.85;;;3.03;;
65759;SDS011;52496;51.082;5.066;2023-08-21T07:11:01;11.82;;;3.65;;
65759;SDS011;52496;51.082;5.066;2023-08-21T07:13:34;9.10;;;3.22;;
65759;SDS011;52496;51.082;5.066;2023-08-21T07:16:04;9.35;;;3.20;;
65759;SDS011;52496;51.082;5.066;2023-08-21T07:18:37;6.63;;;3.42;;
65759;SDS011;52496;51.082;5.066;2023-08-21T07:21:08;8.85;;;3.20;;
65759;SDS011;52496;51.082;5.066;2023-08-21T07:23:39;6.72;;;3.15;;
65759;SDS011;52496;51.082;5.066;2023-08-21T07:26:13;9.18;;;3.63;;
65759;SDS011;52496;51.082;5.066;2023-08-21T07:28:43;8.30;;;2.65;;
65759;SDS011;52496;51.082;5.066;2023-08-21T07:31:14;8.80;;;2.95;;
65759;SDS011;52496;51.082;5.066;2023-08-21T07:33:45;5.22;;;2.60;;
65759;SDS011;52496;51.082;5.066;2023-08-21T07:36:15;8.75;;;4.10;;
65759;SDS011;52496;51.082;5.066;2023-08-21T07:38:49;8.40;;;2.60;;
65759;SDS011;52496;51.082;5.066;2023-08-21T07:41:20;9.88;;;3.05;;
65759;SDS011;52496;51.082;5.066;2023-08-21T07:43:51;12.23;;;3.47;;
65759;SDS011;52496;51.082;5.066;2023-08-21T07:46:21;8.10;;;2.80;;
65759;SDS011;52496;51.082;5.066;2023-08-21T07:48:52;11.10;;;2.40;;
65759;SDS011;52496;51.082;5.066;2023-08-21T07:51:23;8.13;;;2.53;;
65759;SDS011;52496;51.082;5.066;2023-08-21T07:53:54;10.13;;;2.50;;
65759;SDS011;52496;51.082;5.066;2023-08-21T07:56:27;6.35;;;2.60;;
65759;SDS011;52496;51.082;5.066;2023-08-21T07:58:58;7.20;;;2.65;;
65759;SDS011;52496;51.082;5.066;2023-08-21T08:01:29;4.53;;;2.05;;
65759;SDS011;52496;51.082;5.066;2023-08-21T08:03:59;6.85;;;2.25;;
65759;SDS011;52496;51.082;5.066;2023-08-21T08:06:33;7.93;;;2.20;;
65759;SDS011;52496;51.082;5.066;2023-08-21T08:09:03;5.00;;;1.88;;
65759;SDS011;52496;51.082;5.066;2023-08-21T08:11:34;5.43;;;2.30;;
65759;SDS011;52496;51.082;5.066;2023-08-21T08:14:07;5.47;;;2.22;;
65759;SDS011;52496;51.082;5.066;2023-08-21T08:16:38;6.38;;;2.67;;
65759;SDS011;52496;51.082;5.066;2023-08-21T08:19:11;5.95;;;2.40;;
65759;SDS011;52496;51.082;5.066;2023-08-21T08:21:42;5.00;;;2.05;;
65759;SDS011;52496;51.082;5.066;2023-08-21T08:24:15;5.10;;;1.98;;
65759;SDS011;52496;51.082;5.066;2023-08-21T08:26:46;4.93;;;2.00;;
65759;SDS011;52496;51.082;5.066;2023-08-21T08:29:17;6.20;;;2.63;;
65759;SDS011;52496;51.082;5.066;2023-08-21T08:31:47;5.10;;;2.15;;
65759;SDS011;52496;51.082;5.066;2023-08-21T08:34:18;6.82;;;2.45;;
65759;SDS011;52496;51.082;5.066;2023-08-21T08:36:50;5.20;;;2.05;;
65759;SDS011;52496;51.082;5.066;2023-08-21T08:39:20;3.95;;;1.67;;
65759;SDS011;52496;51.082;5.066;2023-08-21T08:41:54;5.50;;;2.10;;
65759;SDS011;52496;51.082;5.066;2023-08-21T08:44:28;3.50;;;1.98;;
65759;SDS011;52496;51.082;5.066;2023-08-21T08:47:00;6.32;;;2.58;;
65759;SDS011;52496;51.082;5.066;2023-08-21T08:49:31;5.22;;;2.22;;
65759;SDS011;52496;51.082;5.066;2023-08-21T08:52:02;3.42;;;1.60;;
65759;SDS011;52496;51.082;5.066;2023-08-21T08:54:35;3.72;;;1.80;;
65759;SDS011;52496;51.082;5.066;2023-08-21T08:57:08;4.35;;;1.75;;
65759;SDS011;52496;51.082;5.066;2023-08-21T08:59:39;10.85;;;3.40;;
65759;SDS011;52496;51.082;5.066;2023-08-21T09:02:09;6.93;;;2.22;;
65759;SDS011;52496;51.082;5.066;2023-08-21T09:04:39;6.55;;;2.03;;
65759;SDS011;52496;51.082;5.066;2023-08-21T09:07:10;4.28;;;2.05;;
65759;SDS011;52496;51.082;5.066;2023-08-21T09:09:45;2.78;;;1.80;;
65759;SDS011;52496;51.082;5.066;2023-08-21T09:12:17;5.88;;;1.98;;
65759;SDS011;52496;51.082;5.066;2023-08-21T09:14:47;8.07;;;2.05;;
65759;SDS011;52496;51.082;5.066;2023-08-21T09:17:18;4.35;;;1.50;;
65759;SDS011;52496;51.082;5.066;2023-08-21T09:19:48;3.95;;;1.85;;
65759;SDS011;52496;51.082;5.066;2023-08-21T09:22:19;3.47;;;1.80;;
65759;SDS011;52496;51.082;5.066;2023-08-21T09:24:59;5.57;;;2.00;;
65759;SDS011;52496;51.082;5.066;2023-08-21T09:27:35;3.97;;;1.70;;
65759;SDS011;52496;51.082;5.066;2023-08-21T09:30:10;4.35;;;1.48;;
65759;SDS011;52496;51.082;5.066;2023-08-21T09:32:55;5.53;;;1.70;;
65759;SDS011;52496;51.082;5.066;2023-08-21T09:35:26;2.83;;;1.40;;
65759;SDS011;52496;51.082;5.066;2023-08-21T09:37:57;6.95;;;2.22;;
65759;SDS011;52496;51.082;5.066;2023-08-21T09:40:27;6.57;;;1.83;;
65759;SDS011;52496;51.082;5.066;2023-08-21T09:42:58;6.15;;;1.90;;
65759;SDS011;52496;51.082;5.066;2023-08-21T09:45:29;4.72;;;1.58;;
65759;SDS011;52496;51.082;5.066;2023-08-21T09:48:00;5.10;;;1.77;;
65759;SDS011;52496;51.082;5.066;2023-08-21T09:50:31;4.97;;;1.67;;
65759;SDS011;52496;51.082;5.066;2023-08-21T09:53:02;4.65;;;1.80;;
65759;SDS011;52496;51.082;5.066;2023-08-21T09:55:33;4.05;;;1.67;;
65759;SDS011;52496;51.082;5.066;2023-08-21T09:58:05;5.07;;;1.67;;
65759;SDS011;52496;51.082;5.066;2023-08-21T10:00:37;4.20;;;1.73;;
65759;SDS011;52496;51.082;5.066;2023-08-21T10:03:08;7.50;;;1.95;;
65759;SDS011;52496;51.082;5.066;2023-08-21T10:05:40;4.72;;;1.63;;
65759;SDS011;52496;51.082;5.066;2023-08-21T10:08:11;4.20;;;1.80;;
65759;SDS011;52496;51.082;5.066;2023-08-21T10:10:44;4.20;;;1.67;;
65759;SDS011;52496;51.082;5.066;2023-08-21T10:13:17;13.75;;;2.70;;
65759;SDS011;52496;51.082;5.066;2023-08-21T10:15:48;4.47;;;1.80;;
65759;SDS011;52496;51.082;5.066;2023-08-21T10:18:24;5.07;;;1.55;;
65759;SDS011;52496;51.082;5.066;2023-08-21T10:21:13;5.07;;;1.70;;
65759;SDS011;52496;51.082;5.066;2023-08-21T10:23:46;3.75;;;1.77;;
65759;SDS011;52496;51.082;5.066;2023-08-21T10:26:21;3.78;;;1.70;;
65759;SDS011;52496;51.082;5.066;2023-08-21T10:28:58;7.60;;;1.98;;
65759;SDS011;52496;51.082;5.066;2023-08-21T10:31:36;4.72;;;2.00;;
65759;SDS011;52496;51.082;5.066;2023-08-21T10:34:09;5.00;;;1.70;;
65759;SDS011;52496;51.082;5.066;2023-08-21T10:39:20;6.65;;;2.00;;
65759;SDS011;52496;51.082;5.066;2023-08-21T10:42:00;7.32;;;1.95;;
65759;SDS011;52496;51.082;5.066;2023-08-21T10:49:48;7.47;;;1.55;;
65759;SDS011;52496;51.082;5.066;2023-08-21T10:52:31;15.23;;;2.40;;
65759;SDS011;52496;51.082;5.066;2023-08-21T10:55:17;7.40;;;2.47;;
65759;SDS011;52496;51.082;5.066;2023-08-21T10:57:48;2.80;;;1.63;;
65759;SDS011;52496;51.082;5.066;2023-08-21T11:00:19;4.18;;;1.75;;
65759;SDS011;52496;51.082;5.066;2023-08-21T11:02:50;3.88;;;2.13;;
65759;SDS011;52496;51.082;5.066;2023-08-21T11:05:21;6.22;;;1.90;;
65759;SDS011;52496;51.082;5.066;2023-08-21T11:07:51;6.18;;;2.13;;
65759;SDS011;52496;51.082;5.066;2023-08-21T11:10:22;4.10;;;1.77;;
65759;SDS011;52496;51.082;5.066;2023-08-21T11:12:54;7.38;;;2.05;;
65759;SDS011;52496;51.082;5.066;2023-08-21T11:15:26;4.88;;;1.90;;
65759;SDS011;52496;51.082;5.066;2023-08-21T11:17:59;5.38;;;1.88;;
65759;SDS011;52496;51.082;5.066;2023-08-21T11:20:31;8.00;;;2.05;;
65759;SDS011;52496;51.082;5.066;2023-08-21T11:23:04;4.90;;;1.60;;
65759;SDS011;52496;51.082;5.066;2023-08-21T11:25:40;7.03;;;1.90;;
65759;SDS011;52496;51.082;5.066;2023-08-21T11:28:15;5.15;;;2.05;;
65759;SDS011;52496;51.082;5.066;2023-08-21T11:30:46;3.53;;;1.90;;
65759;SDS011;52496;51.082;5.066;2023-08-21T11:33:17;12.20;;;2.58;;
65759;SDS011;52496;51.082;5.066;2023-08-21T11:35:48;5.07;;;2.13;;
65759;SDS011;52496;51.082;5.066;2023-08-21T11:38:20;4.47;;;1.90;;
65759;SDS011;52496;51.082;5.066;2023-08-21T11:43:33;8.35;;;1.88;;
65759;SDS011;52496;51.082;5.066;2023-08-21T11:46:08;7.05;;;2.47;;
65759;SDS011;52496;51.082;5.066;2023-08-21T11:48:44;6.72;;;2.58;;
65759;SDS011;52496;51.082;5.066;2023-08-21T11:51:15;4.32;;;1.75;;
65759;SDS011;52496;51.082;5.066;2023-08-21T11:53:47;9.38;;;5.03;;
65759;SDS011;52496;51.082;5.066;2023-08-21T11:56:19;5.35;;;2.45;;
65759;SDS011;52496;51.082;5.066;2023-08-21T11:58:49;7.05;;;2.08;;
65759;SDS011;52496;51.082;5.066;2023-08-21T12:01:20;4.53;;;1.80;;
65759;SDS011;52496;51.082;5.066;2023-08-21T12:03:51;6.07;;;2.60;;
65759;SDS011;52496;51.082;5.066;2023-08-21T12:06:25;2.80;;;1.70;;
65759;SDS011;52496;51.082;5.066;2023-08-21T12:08:57;7.20;;;2.80;;
65759;SDS011;52496;51.082;5.066;2023-08-21T12:11:27;3.92;;;1.85;;
65759;SDS011;52496;51.082;5.066;2023-08-21T12:13:58;8.38;;;2.45;;
65759;SDS011;52496;51.082;5.066;2023-08-21T12:16:28;3.78;;;2.13;;
65759;SDS011;52496;51.082;5.066;2023-08-21T12:18:59;6.32;;;1.95;;
65759;SDS011;52496;51.082;5.066;2023-08-21T12:21:29;6.43;;;1.90;;
65759;SDS011;52496;51.082;5.066;2023-08-21T12:24:00;5.22;;;3.33;;
65759;SDS011;52496;51.082;5.066;2023-08-21T12:26:31;8.88;;;3.47;;
65759;SDS011;52496;51.082;5.066;2023-08-21T12:29:01;6.30;;;2.53;;
65759;SDS011;52496;51.082;5.066;2023-08-21T12:31:32;8.02;;;2.25;;
65759;SDS011;52496;51.082;5.066;2023-08-21T12:34:03;14.93;;;6.68;;
65759;SDS011;52496;51.082;5.066;2023-08-21T12:36:36;6.25;;;2.42;;
65759;SDS011;52496;51.082;5.066;2023-08-21T12:39:07;6.70;;;2.13;;
65759;SDS011;52496;51.082;5.066;2023-08-21T12:41:38;12.20;;;2.40;;
65759;SDS011;52496;51.082;5.066;2023-08-21T12:44:09;7.43;;;2.88;;
65759;SDS011;52496;51.082;5.066;2023-08-21T12:46:40;5.75;;;1.90;;
65759;SDS011;52496;51.082;5.066;2023-08-21T12:49:10;3.08;;;1.90;;
65759;SDS011;52496;51.082;5.066;2023-08-21T12:51:41;6.60;;;2.40;;
65759;SDS011;52496;51.082;5.066;2023-08-21T12:54:11;4.38;;;2.35;;
65759;SDS011;52496;51.082;5.066;2023-08-21T12:56:41;5.50;;;2.10;;
65759;SDS011;52496;51.082;5.066;2023-08-21T12:59:12;3.53;;;1.75;;
65759;SDS011;52496;51.082;5.066;2023-08-21T13:01:43;4.15;;;1.90;;
65759;SDS011;52496;51.082;5.066;2023-08-21T13:04:14;3.22;;;1.70;;
65759;SDS011;52496;51.082;5.066;2023-08-21T13:06:44;5.28;;;2.22;;
65759;SDS011;52496;51.082;5.066;2023-08-21T13:09:15;5.57;;;2.15;;
65759;SDS011;52496;51.082;5.066;2023-08-21T13:11:45;7.18;;;2.00;;
65759;SDS011;52496;51.082;5.066;2023-08-21T13:14:15;8.38;;;2.50;;
65759;SDS011;52496;51.082;5.066;2023-08-21T13:16:46;6.38;;;2.35;;
65759;SDS011;52496;51.082;5.066;2023-08-21T13:19:16;4.20;;;1.90;;
65759;SDS011;52496;51.082;5.066;2023-08-21T13:21:47;5.60;;;2.00;;
65759;SDS011;52496;51.082;5.066;2023-08-21T13:24:17;8.07;;;2.33;;
65759;SDS011;52496;51.082;5.066;2023-08-21T13:26:48;5.78;;;2.00;;
65759;SDS011;52496;51.082;5.066;2023-08-21T13:29:18;5.25;;;2.00;;
65759;SDS011;52496;51.082;5.066;2023-08-21T13:31:48;4.72;;;1.85;;
65759;SDS011;52496;51.082;5.066;2023-08-21T13:34:19;5.40;;;2.03;;
65759;SDS011;52496;51.082;5.066;2023-08-21T13:36:49;1.83;;;1.52;;
65759;SDS011;52496;51.082;5.066;2023-08-21T13:39:21;3.97;;;1.77;;
65759;SDS011;52496;51.082;5.066;2023-08-21T13:41:52;4.55;;;1.90;;
65759;SDS011;52496;51.082;5.066;2023-08-21T13:44:22;3.00;;;1.92;;
65759;SDS011;52496;51.082;5.066;2023-08-21T13:46:53;4.85;;;2.15;;
65759;SDS011;52496;51.082;5.066;2023-08-21T13:49:23;4.38;;;1.80;;
65759;SDS011;52496;51.082;5.066;2023-08-21T13:51:54;4.10;;;1.92;;
65759;SDS011;52496;51.082;5.066;2023-08-21T13:54:24;5.82;;;1.90;;
65759;SDS011;52496;51.082;5.066;2023-08-21T13:56:54;4.97;;;2.10;;
65759;SDS011;52496;51.082;5.066;2023-08-21T13:59:25;4.60;;;1.88;;
65759;SDS011;52496;51.082;5.066;2023-08-21T14:01:55;5.93;;;1.95;;
65759;SDS011;52496;51.082;5.066;2023-08-21T14:04:26;2.75;;;1.65;;
65759;SDS011;52496;51.082;5.066;2023-08-21T14:06:56;4.07;;;1.92;;
65759;SDS011;52496;51.082;5.066;2023-08-21T14:09:26;3.28;;;1.63;;
65759;SDS011;52496;51.082;5.066;2023-08-21T14:11:57;4.25;;;1.77;;
65759;SDS011;52496;51.082;5.066;2023-08-21T14:14:27;4.30;;;1.88;;
65759;SDS011;52496;51.082;5.066;2023-08-21T14:16:57;3.10;;;1.90;;
65759;SDS011;52496;51.082;5.066;2023-08-21T14:19:28;7.70;;;3.75;;
65759;SDS011;52496;51.082;5.066;2023-08-21T14:21:59;3.67;;;1.83;;
65759;SDS011;52496;51.082;5.066;2023-08-21T14:24:29;2.65;;;1.60;;
65759;SDS011;52496;51.082;5.066;2023-08-21T14:26:59;3.20;;;1.67;;
65759;SDS011;52496;51.082;5.066;2023-08-21T14:29:30;2.70;;;1.38;;
65759;SDS011;52496;51.082;5.066;2023-08-21T14:32:00;4.22;;;2.00;;
65759;SDS011;52496;51.082;5.066;2023-08-21T14:34:31;3.90;;;2.15;;
65759;SDS011;52496;51.082;5.066;2023-08-21T14:37:01;4.60;;;1.80;;
65759;SDS011;52496;51.082;5.066;2023-08-21T14:39:34;6.85;;;2.22;;
65759;SDS011;52496;51.082;5.066;2023-08-21T14:42:04;4.30;;;1.88;;
65759;SDS011;52496;51.082;5.066;2023-08-21T14:44:35;2.20;;;1.50;;
65759;SDS011;52496;51.082;5.066;2023-08-21T14:47:05;2.78;;;1.60;;
65759;SDS011;52496;51.082;5.066;2023-08-21T14:49:36;3.80;;;2.00;;
65759;SDS011;52496;51.082;5.066;2023-08-21T14:52:07;5.38;;;2.20;;
65759;SDS011;52496;51.082;5.066;2023-08-21T14:54:38;3.00;;;1.67;;
65759;SDS011;52496;51.082;5.066;2023-08-21T14:57:08;5.15;;;2.22;;
65759;SDS011;52496;51.082;5.066;2023-08-21T14:59:39;3.63;;;1.73;;
65759;SDS011;52496;51.082;5.066;2023-08-21T15:02:09;4.82;;;1.75;;
65759;SDS011;52496;51.082;5.066;2023-08-21T15:04:39;3.25;;;1.70;;
65759;SDS011;52496;51.082;5.066;2023-08-21T15:07:10;2.38;;;1.60;;
65759;SDS011;52496;51.082;5.066;2023-08-21T15:09:40;3.40;;;1.55;;
65759;SDS011;52496;51.082;5.066;2023-08-21T15:12:11;3.47;;;1.60;;
65759;SDS011;52496;51.082;5.066;2023-08-21T15:14:41;3.22;;;1.80;;
65759;SDS011;52496;51.082;5.066;2023-08-21T15:17:11;6.43;;;2.10;;
65759;SDS011;52496;51.082;5.066;2023-08-21T15:19:42;6.13;;;1.80;;
65759;SDS011;52496;51.082;5.066;2023-08-21T15:22:13;3.20;;;1.52;;
65759;SDS011;52496;51.082;5.066;2023-08-21T15:24:44;4.22;;;1.77;;
65759;SDS011;52496;51.082;5.066;2023-08-21T15:27:15;3.05;;;1.50;;
65759;SDS011;52496;51.082;5.066;2023-08-21T15:29:47;2.90;;;1.55;;
65759;SDS011;52496;51.082;5.066;2023-08-21T15:32:17;3.70;;;1.60;;
65759;SDS011;52496;51.082;5.066;2023-08-21T15:34:48;5.97;;;1.65;;
65759;SDS011;52496;51.082;5.066;2023-08-21T15:37:18;4.88;;;1.48;;
65759;SDS011;52496;51.082;5.066;2023-08-21T15:39:49;3.53;;;1.50;;
65759;SDS011;52496;51.082;5.066;2023-08-21T15:42:19;6.25;;;1.52;;
65759;SDS011;52496;51.082;5.066;2023-08-21T15:44:49;2.22;;;1.55;;
65759;SDS011;52496;51.082;5.066;2023-08-21T15:47:20;3.70;;;2.03;;
65759;SDS011;52496;51.082;5.066;2023-08-21T15:49:50;2.55;;;1.52;;
65759;SDS011;52496;51.082;5.066;2023-08-21T15:52:21;5.07;;;1.70;;
65759;SDS011;52496;51.082;5.066;2023-08-21T15:54:52;2.13;;;1.30;;
65759;SDS011;52496;51.082;5.066;2023-08-21T15:57:22;3.05;;;1.50;;
65759;SDS011;52496;51.082;5.066;2023-08-21T15:59:54;6.13;;;2.25;;
65759;SDS011;52496;51.082;5.066;2023-08-21T16:02:25;3.63;;;1.75;;
65759;SDS011;52496;51.082;5.066;2023-08-21T16:04:55;2.88;;;1.73;;
65759;SDS011;52496;51.082;5.066;2023-08-21T16:07:26;2.63;;;1.50;;
65759;SDS011;52496;51.082;5.066;2023-08-21T16:09:56;2.47;;;1.67;;
65759;SDS011;52496;51.082;5.066;2023-08-21T16:12:27;3.00;;;1.73;;
65759;SDS011;52496;51.082;5.066;2023-08-21T16:14:57;5.28;;;1.70;;
65759;SDS011;52496;51.082;5.066;2023-08-21T16:17:27;5.88;;;2.15;;
65759;SDS011;52496;51.082;5.066;2023-08-21T16:19:58;4.22;;;1.85;;
65759;SDS011;52496;51.082;5.066;2023-08-21T16:22:36;4.57;;;1.92;;